Regal Star — ESCM — position and weather

sailwx.info

Track history (hours):
 
Tides and Currents Weather Stations Pressure Air Temp Water Temp Dewpoint Dewpoint Depression Visibility Wind Speed Wind Dir Waves Ship Positions

Regal Star

Last reported at 2016-May-28 20:22 UTC. Time now 2016-May-28 22:06 UTC.
Position N 59°20' E 022°43'.

Length 157 m; draft 6.6 m.

Type: Ship (hazmat cat B). MMSI: 276554000.

Date/timePositionNaut miles runAvg speedWind from/ knotsBaromVisibWave heightAir tempDewpointWater temp
2016-May-28 20:22N 59°20' E 022°43'18 1.1
2016-May-28 03:32N 59°22' E 023°17'1515.7
2016-May-28 02:33N 59°23' E 022°47'1615.7
2016-May-28 01:33N 59°25' E 022°17'1515.5
2016-May-28 00:34N 59°29' E 021°47'1515.4
2016-May-27 23:33N 59°34' E 021°18'1615.5
2016-May-27 22:33N 59°38' E 020°49'16 0.7
2016-May-26 23:33N 59°29' E 021°14'1615.5
2016-May-26 22:33N 59°26' E 021°44'60 3.3
2016-May-26 04:10N 59°23' E 023°42'1616.6
2016-May-26 03:14N 59°23' E 023°11'4416.3
2016-May-26 00:33N 59°30' E 021°46'1616.4
2016-May-25 23:33N 59°34' E 021°16'7 0.3
2016-May-24 23:33N 59°28' E 021°23'1616.3
2016-May-24 22:33N 59°25' E 021°55'1615.8
2016-May-24 21:33N 59°21' E 022°25'2216.0
2016-May-24 20:10N 59°21' E 023°08'1216.6
2016-May-24 19:26N 59°22' E 023°32'6 0.4
2016-May-24 04:27N 59°23' E 023°43'1314.4
2016-May-24 03:32N 59°23' E 023°18'1515.2
2016-May-24 02:33N 59°23' E 022°48'1515.4
2016-May-24 01:33N 59°25' E 022°18'1615.7
2016-May-24 00:33N 59°29' E 021°49'1615.7
2016-May-23 23:33N 59°34' E 021°19'1615.6
2016-May-23 22:32N 59°38' E 020°49'10 0.5
2016-May-23 00:21N 59°31' E 021°02'1416.2
2016-May-22 23:27N 59°27' E 021°30'2116.3
2016-May-22 22:09N 59°22' E 022°10'1016.4
2016-May-22 21:33N 59°20' E 022°29'2116.3
2016-May-22 20:18N 59°21' E 023°09'1216.4
2016-May-22 19:33N 59°22' E 023°33'1515.4
2016-May-22 18:33N 59°20' E 024°03'2 0.6
2016-May-22 15:29N 59°21' E 024°01'1516.0
2016-May-22 14:33N 59°23' E 023°31'1716.8
2016-May-22 13:33N 59°23' E 022°59'1716.7
2016-May-22 12:33N 59°24' E 022°26'1616.3
2016-May-22 11:34N 59°28' E 021°55'1616.3
2016-May-22 10:33N 59°33' E 021°25'1616.2
2016-May-22 09:33N 59°38' E 020°54'13 1.5
2016-May-22 00:33N 59°29' E 021°14'1616.0
2016-May-21 23:33N 59°25' E 021°45'1615.9
2016-May-21 22:33N 59°22' E 022°15'3415.6
2016-May-21 20:23N 59°22' E 023°21'15 0.9
2016-May-21 04:33N 59°23' E 023°50'1615.5
2016-May-21 03:31N 59°23' E 023°19'1615.8
2016-May-21 02:30N 59°23' E 022°47'1715.6
2016-May-21 01:25N 59°25' E 022°15'1415.7
2016-May-21 00:34N 59°29' E 021°49'1616.1
2016-May-20 23:33N 59°34' E 021°18'1616.1
2016-May-20 22:33N 59°38' E 020°48'15 0.7
2016-May-19 23:24N 59°29' E 021°13'1515.5
2016-May-19 22:28N 59°26' E 021°41'1415.6
2016-May-19 21:34N 59°23' E 022°08'1515.4
2016-May-19 20:34N 59°20' E 022°37'1615.5
2016-May-19 19:31N 59°21' E 023°09'4 0.3
2016-May-19 03:26N 59°23' E 023°16'4615.5
2016-May-19 00:30N 59°29' E 021°48'1515.5
2016-May-18 23:33N 59°34' E 021°20'1715.4
2016-May-18 22:28N 59°38' E 020°48'  
Track history (hours):
 
Tides and Currents Weather Stations Pressure Air Temp Water Temp Dewpoint Dewpoint Depression Visibility Wind Speed Wind Dir Waves Ship Positions

Regal Star

Last reported at 2016-May-28 20:22 UTC. Time now 2016-May-28 22:06 UTC.
Position N 59°20' E 022°43'.

Length 157 m; draft 6.6 m.

Type: Ship (hazmat cat B). MMSI: 276554000.

Date/timePositionNaut miles runAvg speedWind from/ knotsBaromVisibWave heightAir tempDewpointWater temp
2016-May-28 20:22N 59°20' E 022°43'18 1.1
2016-May-28 03:32N 59°22' E 023°17'1515.7
2016-May-28 02:33N 59°23' E 022°47'1615.7
2016-May-28 01:33N 59°25' E 022°17'1515.5
2016-May-28 00:34N 59°29' E 021°47'1515.4
2016-May-27 23:33N 59°34' E 021°18'1615.5
2016-May-27 22:33N 59°38' E 020°49'16 0.7
2016-May-26 23:33N 59°29' E 021°14'1615.5
2016-May-26 22:33N 59°26' E 021°44'60 3.3
2016-May-26 04:10N 59°23' E 023°42'1616.6
2016-May-26 03:14N 59°23' E 023°11'4416.3
2016-May-26 00:33N 59°30' E 021°46'1616.4
2016-May-25 23:33N 59°34' E 021°16'7 0.3
2016-May-24 23:33N 59°28' E 021°23'1616.3
2016-May-24 22:33N 59°25' E 021°55'1615.8
2016-May-24 21:33N 59°21' E 022°25'2216.0
2016-May-24 20:10N 59°21' E 023°08'1216.6
2016-May-24 19:26N 59°22' E 023°32'6 0.4
2016-May-24 04:27N 59°23' E 023°43'1314.4
2016-May-24 03:32N 59°23' E 023°18'1515.2
2016-May-24 02:33N 59°23' E 022°48'1515.4
2016-May-24 01:33N 59°25' E 022°18'1615.7
2016-May-24 00:33N 59°29' E 021°49'1615.7
2016-May-23 23:33N 59°34' E 021°19'1615.6
2016-May-23 22:32N 59°38' E 020°49'10 0.5
2016-May-23 00:21N 59°31' E 021°02'1416.2
2016-May-22 23:27N 59°27' E 021°30'2116.3
2016-May-22 22:09N 59°22' E 022°10'1016.4
2016-May-22 21:33N 59°20' E 022°29'2116.3
2016-May-22 20:18N 59°21' E 023°09'1216.4
2016-May-22 19:33N 59°22' E 023°33'1515.4
2016-May-22 18:33N 59°20' E 024°03'2 0.6
2016-May-22 15:29N 59°21' E 024°01'1516.0
2016-May-22 14:33N 59°23' E 023°31'1716.8
2016-May-22 13:33N 59°23' E 022°59'1716.7
2016-May-22 12:33N 59°24' E 022°26'1616.3
2016-May-22 11:34N 59°28' E 021°55'1616.3
2016-May-22 10:33N 59°33' E 021°25'1616.2
2016-May-22 09:33N 59°38' E 020°54'13 1.5
2016-May-22 00:33N 59°29' E 021°14'1616.0
2016-May-21 23:33N 59°25' E 021°45'1615.9
2016-May-21 22:33N 59°22' E 022°15'3415.6
2016-May-21 20:23N 59°22' E 023°21'15 0.9
2016-May-21 04:33N 59°23' E 023°50'1615.5
2016-May-21 03:31N 59°23' E 023°19'1615.8
2016-May-21 02:30N 59°23' E 022°47'1715.6
2016-May-21 01:25N 59°25' E 022°15'1415.7
2016-May-21 00:34N 59°29' E 021°49'1616.1
2016-May-20 23:33N 59°34' E 021°18'1616.1
2016-May-20 22:33N 59°38' E 020°48'15 0.7
2016-May-19 23:24N 59°29' E 021°13'1515.5
2016-May-19 22:28N 59°26' E 021°41'1415.6
2016-May-19 21:34N 59°23' E 022°08'1515.4
2016-May-19 20:34N 59°20' E 022°37'1615.5
2016-May-19 19:31N 59°21' E 023°09'4 0.3
2016-May-19 03:26N 59°23' E 023°16'4615.5
2016-May-19 00:30N 59°29' E 021°48'1515.5
2016-May-18 23:33N 59°34' E 021°20'1715.4
2016-May-18 22:28N 59°38' E 020°48'  

Dump ship's entire track history